Time;durP1;ratioP1;P1;durP2;ratioP2;P2;SDS_P1;SDS_P2;PMS_P1;PMS_P2;Temp;Humidity;BMP_temperature;BMP_pressure;BME280_temperature;BME280_humidity;BME280_pressure;Samples;Min_cycle;Max_cycle;Signal;HPM_P1;HPM_P2
2021/05/05 00:00:12;;;;;;;1.48;1.30;;;;;;;11.05;52.61;100024.22;4909569;28;119042;-67
2021/05/05 00:02:41;;;;;;;3.08;1.70;;;;;;;11.00;52.47;100015.72;4892282;28;124275;-67
2021/05/05 00:05:08;;;;;;;1.90;1.48;;;;;;;10.96;52.47;100016.81;4909223;28;123774;-67
2021/05/05 00:07:34;;;;;;;2.30;1.42;;;;;;;10.93;52.63;100024.13;4910523;28;119190;-66
2021/05/05 00:10:03;;;;;;;2.00;1.60;;;;;;;10.89;52.68;100018.16;4911293;28;119327;-66
2021/05/05 00:12:30;;;;;;;2.40;1.48;;;;;;;10.85;52.42;100021.91;4910726;28;124490;-67
2021/05/05 00:14:56;;;;;;;2.45;1.50;;;;;;;10.80;52.87;100013.41;4891706;28;123361;-67
2021/05/05 00:17:23;;;;;;;4.35;1.77;;;;;;;10.77;53.10;100018.88;4910535;28;119476;-66
2021/05/05 00:19:50;;;;;;;3.22;1.80;;;;;;;10.73;52.91;100018.22;4894409;28;118173;-67
2021/05/05 00:22:16;;;;;;;3.30;1.60;;;;;;;10.73;53.27;100027.94;4908636;28;123983;-67
2021/05/05 00:24:43;;;;;;;2.33;1.52;;;;;;;10.69;53.08;100028.13;4908204;28;123591;-67
2021/05/05 00:27:09;;;;;;;3.38;2.03;;;;;;;10.67;53.11;100019.41;4909900;28;119176;-67
2021/05/05 00:29:36;;;;;;;1.98;1.65;;;;;;;10.67;53.21;100014.13;4911019;28;119390;-67
2021/05/05 00:32:03;;;;;;;2.97;1.67;;;;;;;10.66;53.38;100017.72;4910893;28;123922;-68
2021/05/05 00:34:30;;;;;;;4.10;1.73;;;;;;;10.65;53.51;100025.75;4910204;28;123856;-68
2021/05/05 00:36:57;;;;;;;4.50;1.80;;;;;;;10.63;53.41;100033.78;4890877;28;120329;-67
2021/05/05 00:39:24;;;;;;;2.67;1.52;;;;;;;10.62;53.48;100026.78;4909755;28;119780;-68
2021/05/05 00:41:50;;;;;;;3.30;1.90;;;;;;;10.62;53.92;100032.06;4895601;28;124928;-68
2021/05/05 00:44:19;;;;;;;4.05;2.00;;;;;;;10.59;53.86;100042.84;4908415;28;124224;-68
2021/05/05 00:46:45;;;;;;;4.20;1.92;;;;;;;10.58;53.66;100033.19;4911204;28;119399;-67
2021/05/05 00:49:12;;;;;;;3.92;2.42;;;;;;;10.56;53.79;100037.72;4892052;28;118520;-67
2021/05/05 00:51:39;;;;;;;4.15;1.95;;;;;;;10.57;54.21;100028.84;4912153;28;124643;-68
2021/05/05 00:54:06;;;;;;;4.57;2.00;;;;;;;10.57;54.35;100020.91;4908867;28;124603;-68
2021/05/05 00:56:33;;;;;;;4.00;2.00;;;;;;;10.57;54.17;100034.16;4891203;28;119633;-67
2021/05/05 00:59:00;;;;;;;3.15;1.88;;;;;;;10.56;54.20;100021.84;4911361;28;119626;-68
2021/05/05 01:01:26;;;;;;;3.38;1.65;;;;;;;10.56;54.27;100027.13;4910226;28;124334;-68
2021/05/05 01:03:53;;;;;;;4.32;1.95;;;;;;;10.58;54.04;100021.75;4909121;28;124411;-68
2021/05/05 01:06:20;;;;;;;5.32;2.00;;;;;;;10.57;54.24;100017.38;4909052;28;119804;-68
2021/05/05 01:08:49;;;;;;;6.03;2.25;;;;;;;10.58;54.35;100013.81;4892165;28;118433;-68
2021/05/05 01:11:15;;;;;;;6.65;1.70;;;;;;;10.58;54.37;100019.97;4910722;28;124899;-68
2021/05/05 01:13:43;;;;;;;5.47;2.28;;;;;;;10.59;54.56;100011.09;4895461;28;123663;-68
2021/05/05 01:16:14;;;;;;;5.03;1.90;;;;;;;10.59;54.22;100010.25;4910980;28;119349;-68
2021/05/05 01:18:42;;;;;;;2.97;1.80;;;;;;;10.56;54.40;100011.25;4909095;28;119573;-68
2021/05/05 01:21:11;;;;;;;4.10;2.00;;;;;;;10.53;54.64;100003.50;4891440;28;124061;-68
2021/05/05 01:23:39;;;;;;;3.38;1.95;;;;;;;10.51;54.68;100010.69;4891898;28;123978;-68
2021/05/05 01:26:06;;;;;;;4.15;2.10;;;;;;;10.50;54.64;100008.97;4874517;28;119684;-68
2021/05/05 01:28:33;;;;;;;5.57;2.10;;;;;;;10.48;54.55;100003.75;4893994;28;119344;-68
2021/05/05 01:31:00;;;;;;;3.75;1.63;;;;;;;10.46;54.45;100004.81;4908642;28;124593;-68
2021/05/05 01:33:26;;;;;;;5.97;2.10;;;;;;;10.46;54.65;100004.81;4911031;28;124974;-68
2021/05/05 01:35:53;;;;;;;5.50;1.90;;;;;;;10.44;54.82;100002.25;4912401;28;119612;-68
2021/05/05 01:38:20;;;;;;;9.27;2.20;;;;;;;10.43;54.66;99999.66;4877117;28;119152;-67
2021/05/05 01:40:49;;;;;;;3.83;1.85;;;;;;;10.41;54.76;100001.56;4938887;22;124022;-68
2021/05/05 01:43:16;;;;;;;3.28;1.70;;;;;;;10.38;54.59;100001.72;4925588;28;124025;-68
2021/05/05 01:45:43;;;;;;;6.30;1.80;;;;;;;10.36;54.90;100015.06;4917849;28;118563;-68
2021/05/05 01:48:10;;;;;;;3.70;1.90;;;;;;;10.32;54.74;100003.81;4923825;28;119289;-68
2021/05/05 01:50:38;;;;;;;4.88;2.33;;;;;;;10.31;55.13;100002.09;4899434;28;123273;-68
2021/05/05 01:53:06;;;;;;;6.15;1.90;;;;;;;10.29;54.94;100005.75;4896911;28;123565;-67
2021/05/05 01:55:35;;;;;;;7.32;2.03;;;;;;;10.27;55.01;100005.81;4925055;28;119493;-67
2021/05/05 01:58:05;;;;;;;5.13;1.70;;;;;;;10.24;54.80;100000.69;4896126;28;118632;-67
2021/05/05 02:00:34;;;;;;;8.32;1.95;;;;;;;10.24;55.06;100000.69;4911333;28;124013;-67
2021/05/05 02:03:07;;;;;;;6.25;1.95;;;;;;;10.20;54.85;99999.16;4925469;28;124189;-67
2021/05/05 02:05:44;;;;;;;5.00;2.13;;;;;;;10.18;54.83;100006.34;4905554;28;118498;-67
2021/05/05 02:08:33;;;;;;;6.53;2.10;;;;;;;10.15;54.98;99993.28;4914081;28;120015;-67
2021/05/05 02:11:01;;;;;;;6.10;2.22;;;;;;;10.14;54.91;99994.22;4921414;28;124416;-67
2021/05/05 02:13:29;;;;;;;7.38;2.60;;;;;;;10.12;55.36;99985.53;4899270;28;123028;-67
2021/05/05 02:15:56;;;;;;;5.85;2.38;;;;;;;10.11;55.40;99986.47;4925338;28;120650;-67
2021/05/05 02:18:25;;;;;;;4.45;2.15;;;;;;;10.10;55.18;99992.72;4897022;28;119324;-67
2021/05/05 02:20:53;;;;;;;6.38;2.47;;;;;;;10.09;55.19;99997.13;4911637;28;123577;-66
2021/05/05 02:23:20;;;;;;;7.55;2.45;;;;;;;10.09;55.51;99996.28;4892180;28;122906;-66
2021/05/05 02:25:49;;;;;;;4.80;2.38;;;;;;;10.06;55.34;99996.47;4893876;28;118921;-66
2021/05/05 02:28:15;;;;;;;5.45;2.38;;;;;;;10.05;55.61;99997.41;4922462;28;119190;-66
2021/05/05 02:31:02;;;;;;;7.90;2.70;;;;;;;10.04;55.85;99998.31;4900743;28;124585;-66
2021/05/05 02:33:31;;;;;;;4.40;2.15;;;;;;;10.03;55.48;99999.28;4892777;28;123241;-66
2021/05/05 02:35:58;;;;;;;4.95;2.28;;;;;;;9.99;55.40;99998.59;4894217;28;118640;-67
2021/05/05 02:38:25;;;;;;;6.35;2.17;;;;;;;9.99;55.49;99995.94;4907503;28;118186;-67
2021/05/05 02:40:52;;;;;;;4.82;2.45;;;;;;;10.00;55.88;100007.38;4910220;28;123728;-67
2021/05/05 02:43:21;;;;;;;6.38;2.00;;;;;;;10.00;55.92;100008.25;4919059;28;124064;-66
2021/05/05 02:45:49;;;;;;;4.20;2.45;;;;;;;9.99;55.64;100005.69;4896584;28;119584;-66
2021/05/05 02:48:16;;;;;;;5.18;1.90;;;;;;;9.98;55.56;100003.97;4919950;28;119086;-67
2021/05/05 02:50:43;;;;;;;6.30;2.20;;;;;;;9.97;55.50;100004.94;4925697;28;124689;-67
2021/05/05 02:53:10;;;;;;;5.72;2.15;;;;;;;9.96;55.46;100008.50;4923907;28;124072;-67
2021/05/05 02:55:36;;;;;;;4.78;2.40;;;;;;;9.93;55.90;100006.88;4897138;28;120027;-67
2021/05/05 02:58:03;;;;;;;5.70;2.45;;;;;;;9.91;55.68;100004.31;4917354;28;119351;-67
2021/05/05 03:00:29;;;;;;;3.40;2.30;;;;;;;9.88;55.49;100015.06;4919772;28;124787;-67
2021/05/05 03:02:57;;;;;;;3.60;2.63;;;;;;;9.85;55.96;100009.09;4897004;28;122927;-67
2021/05/05 03:05:23;;;;;;;6.25;2.70;;;;;;;9.83;55.96;100011.84;4900490;28;120187;-67
2021/05/05 03:07:50;;;;;;;5.68;2.80;;;;;;;9.82;55.87;100015.41;4929063;28;120142;-67
2021/05/05 03:10:17;;;;;;;6.65;2.72;;;;;;;9.82;55.89;100014.56;4923985;28;123843;-68
2021/05/05 03:12:44;;;;;;;6.47;3.03;;;;;;;9.82;56.09;100010.13;4925149;28;124023;-67
2021/05/05 03:15:11;;;;;;;6.28;2.97;;;;;;;9.82;56.06;100002.19;4898288;28;119331;-67
2021/05/05 03:17:38;;;;;;;7.40;3.00;;;;;;;9.83;56.00;100011.84;4926402;28;119139;-68
2021/05/05 03:20:10;;;;;;;6.68;2.83;;;;;;;9.83;55.92;100011.84;4902380;28;123147;-67
2021/05/05 03:22:37;;;;;;;6.53;2.80;;;;;;;9.84;55.79;100013.53;4924086;28;124521;-68
2021/05/05 03:25:05;;;;;;;5.72;2.78;;;;;;;9.84;56.12;100010.03;4912132;28;118190;-67
2021/05/05 03:27:32;;;;;;;5.10;2.83;;;;;;;9.82;56.26;100015.41;4903145;28;119290;-67
2021/05/05 03:29:59;;;;;;;5.53;2.83;;;;;;;9.82;56.39;100006.63;4906542;28;124116;-67
2021/05/05 03:32:26;;;;;;;5.10;2.97;;;;;;;9.80;56.25;100017.28;4924787;28;123953;-67
2021/05/05 03:34:53;;;;;;;5.75;3.40;;;;;;;9.80;56.18;100012.00;4902750;28;118090;-67
2021/05/05 03:37:19;;;;;;;10.45;3.65;;;;;;;9.80;56.00;100019.09;4924641;28;119557;-67
2021/05/05 03:39:46;;;;;;;10.02;3.35;;;;;;;9.80;56.17;100022.56;4928059;28;124481;-67
2021/05/05 03:42:12;;;;;;;6.45;3.50;;;;;;;9.78;56.24;100021.81;4900369;28;124202;-67
2021/05/05 03:44:39;;;;;;;11.82;3.88;;;;;;;9.76;56.14;100026.34;4903287;28;118535;-67
2021/05/05 03:47:06;;;;;;;6.07;4.00;;;;;;;9.76;56.39;100021.03;4921730;28;119384;-67
2021/05/05 03:49:33;;;;;;;4.95;3.70;;;;;;;9.74;56.11;100012.34;4901498;28;122938;-68
2021/05/05 03:51:59;;;;;;;6.50;3.90;;;;;;;9.73;56.30;100015.91;4924729;28;123889;-67
2021/05/05 03:54:26;;;;;;;5.68;4.00;;;;;;;9.72;56.49;100019.50;4915225;28;120209;-68
2021/05/05 03:56:53;;;;;;;7.90;4.32;;;;;;;9.71;56.64;100015.16;4893633;28;119004;-67
2021/05/05 03:59:19;;;;;;;7.45;4.00;;;;;;;9.70;56.35;100021.34;4924082;28;124357;-66
2021/05/05 04:01:46;;;;;;;6.97;4.10;;;;;;;9.71;56.72;100026.56;4899628;28;123295;-67
2021/05/05 04:04:13;;;;;;;9.15;4.60;;;;;;;9.71;56.48;100023.06;4926054;28;96737;-67
2021/05/05 04:06:40;;;;;;;10.50;4.22;;;;;;;9.74;56.52;100028.22;4920818;28;119666;-67
2021/05/05 04:09:06;;;;;;;7.32;4.40;;;;;;;9.75;56.78;100036.03;4917155;28;124612;-67
2021/05/05 04:11:33;;;;;;;9.23;4.53;;;;;;;9.76;56.71;100039.56;4923271;28;124322;-67
2021/05/05 04:14:02;;;;;;;7.50;4.80;;;;;;;9.78;56.66;100047.41;4924482;28;119869;-69
2021/05/05 04:16:46;;;;;;;10.65;4.75;;;;;;;9.79;56.75;100044.66;4926261;28;119670;-70
2021/05/05 04:19:33;;;;;;;8.00;3.38;;;;;;;9.76;56.47;100039.56;4913348;28;123559;-69
2021/05/05 04:22:17;;;;;;;7.72;3.10;;;;;;;9.72;56.58;100051.25;4912258;28;122864;-69
2021/05/05 04:25:03;;;;;;;6.57;2.60;;;;;;;9.69;56.58;100051.41;4910007;28;119200;-69
2021/05/05 04:27:30;;;;;;;7.38;3.17;;;;;;;9.67;56.88;100047.97;4925070;28;118160;-69
2021/05/05 04:29:57;;;;;;;5.78;2.90;;;;;;;9.66;56.74;100035.69;4916002;28;124314;-68
2021/05/05 04:32:24;;;;;;;6.80;3.03;;;;;;;9.68;56.85;100057.59;4899586;28;123252;-68
2021/05/05 04:34:51;;;;;;;5.90;3.00;;;;;;;9.69;56.89;100051.41;4894869;28;118909;-68
2021/05/05 04:37:17;;;;;;;8.07;3.55;;;;;;;9.71;57.10;100049.53;4919893;28;119048;-68
2021/05/05 04:39:45;;;;;;;8.30;3.22;;;;;;;9.74;56.86;100057.28;4921494;28;124321;-68
2021/05/05 04:42:12;;;;;;;7.47;3.20;;;;;;;9.76;57.08;100068.63;4904503;28;123147;-69
2021/05/05 04:44:39;;;;;;;7.03;3.65;;;;;;;9.79;56.95;100075.53;4922048;28;120578;-69
2021/05/05 04:47:06;;;;;;;6.82;3.40;;;;;;;9.80;56.64;100075.47;4904756;28;118948;-68
2021/05/05 04:49:32;;;;;;;7.13;3.08;;;;;;;9.80;57.05;100070.19;4923079;28;124374;-69
2021/05/05 04:51:59;;;;;;;8.02;3.10;;;;;;;9.80;57.17;100078.09;4926288;28;124095;-68
2021/05/05 04:54:26;;;;;;;6.28;2.40;;;;;;;9.79;57.14;100078.19;4925704;28;119411;-68
2021/05/05 04:56:52;;;;;;;6.68;2.50;;;;;;;9.78;56.65;100087.06;4925971;28;119061;-69
2021/05/05 04:59:19;;;;;;;7.00;2.63;;;;;;;9.78;56.64;100093.22;4925792;28;124345;-69
2021/05/05 05:01:46;;;;;;;6.22;2.15;;;;;;;9.77;57.13;100086.19;4928673;28;123872;-68
2021/05/05 05:04:12;;;;;;;7.90;2.00;;;;;;;9.77;56.84;100098.56;4930223;28;119396;-70
2021/05/05 05:06:39;;;;;;;7.32;2.45;;;;;;;9.74;56.96;100086.38;4926710;28;119270;-69
2021/05/05 05:09:06;;;;;;;4.50;2.05;;;;;;;9.72;57.14;100091.75;4923768;28;124324;-70
2021/05/05 05:11:32;;;;;;;4.72;1.77;;;;;;;9.72;57.03;100098.84;4902994;28;124508;-70
2021/05/05 05:13:59;;;;;;;4.18;1.45;;;;;;;9.72;57.04;100093.53;4921284;28;119701;-69
2021/05/05 05:16:26;;;;;;;3.15;1.33;;;;;;;9.74;56.75;100102.25;4898241;28;118091;-68
2021/05/05 05:18:55;;;;;;;3.72;1.80;;;;;;;9.74;56.87;100102.25;4907269;28;123385;-69
2021/05/05 05:21:21;;;;;;;4.53;1.70;;;;;;;9.75;56.92;100107.44;4895279;28;123401;-69
2021/05/05 05:23:48;;;;;;;6.63;1.75;;;;;;;9.74;57.14;100103.09;4926802;28;119538;-67
2021/05/05 05:26:14;;;;;;;4.40;1.48;;;;;;;9.76;56.70;100105.66;4920172;28;118920;-68
2021/05/05 05:28:41;;;;;;;4.85;1.42;;;;;;;9.76;57.09;100110.94;4924743;28;125495;-68
2021/05/05 05:31:08;;;;;;;5.75;1.60;;;;;;;9.80;57.03;100111.66;4924986;28;124313;-68
2021/05/05 05:33:34;;;;;;;4.20;1.70;;;;;;;9.80;57.10;100122.22;4922834;28;119999;-69
2021/05/05 05:36:01;;;;;;;4.88;1.67;;;;;;;9.81;57.19;100124.75;4924777;28;120179;-68
2021/05/05 05:38:28;;;;;;;7.55;1.77;;;;;;;9.83;57.10;100129.97;4895493;28;122968;-67
2021/05/05 05:40:55;;;;;;;4.32;1.60;;;;;;;9.83;56.95;100122.91;4927483;28;123999;-69
2021/05/05 05:43:22;;;;;;;7.75;1.80;;;;;;;9.86;57.05;100132.47;4924289;28;119430;-68
2021/05/05 05:45:49;;;;;;;4.22;1.88;;;;;;;9.89;57.31;100134.97;4924893;28;119266;-68
2021/05/05 05:48:16;;;;;;;5.82;1.67;;;;;;;9.91;57.09;100136.56;4897878;28;124487;-69
2021/05/05 05:50:42;;;;;;;3.50;1.48;;;;;;;9.92;56.93;100132.13;4907556;28;123110;-69
2021/05/05 05:53:09;;;;;;;5.65;1.55;;;;;;;9.93;56.84;100134.69;4901849;28;120163;-69
2021/05/05 05:55:36;;;;;;;4.45;1.58;;;;;;;9.93;57.19;100134.69;4922483;28;119252;-69
2021/05/05 05:58:04;;;;;;;3.72;1.60;;;;;;;9.96;56.82;100143.41;4911728;28;122887;-68
2021/05/05 06:00:30;;;;;;;2.63;1.40;;;;;;;9.96;57.02;100152.19;4921093;28;124036;-69
2021/05/05 06:02:57;;;;;;;3.35;1.58;;;;;;;9.98;56.78;100152.09;4913068;28;118555;-69
2021/05/05 06:05:24;;;;;;;3.08;1.23;;;;;;;9.99;56.80;100159.13;4926031;28;119186;-69
2021/05/05 06:07:51;;;;;;;2.30;1.40;;;;;;;10.00;56.90;100160.81;4919263;28;124030;-69
2021/05/05 06:10:17;;;;;;;2.53;1.10;;;;;;;10.01;56.48;100163.38;4899121;28;123253;-68
2021/05/05 06:12:44;;;;;;;4.50;1.20;;;;;;;10.03;56.58;100171.25;4917373;28;119738;-68
2021/05/05 06:15:11;;;;;;;2.70;1.13;;;;;;;10.02;56.57;100173.03;4897595;28;118322;-69
2021/05/05 06:17:38;;;;;;;2.45;1.20;;;;;;;10.03;56.79;100172.09;4902838;28;123434;-69
2021/05/05 06:20:05;;;;;;;2.83;1.25;;;;;;;10.04;56.60;100178.22;4893496;28;123740;-69
2021/05/05 06:22:33;;;;;;;2.33;1.13;;;;;;;10.05;56.49;100185.25;4925289;28;120958;-69
2021/05/05 06:25:00;;;;;;;5.53;1.30;;;;;;;10.03;56.21;100185.31;4920523;28;120347;-68
2021/05/05 06:27:28;;;;;;;3.92;1.02;;;;;;;10.03;56.36;100192.41;4924341;28;124756;-68
2021/05/05 06:29:55;;;;;;;3.47;1.30;;;;;;;10.02;55.98;100201.25;4927840;28;124266;-69
2021/05/05 06:32:22;;;;;;;3.40;1.30;;;;;;;10.00;56.12;100197.84;4924920;28;119515;-69
2021/05/05 06:34:49;;;;;;;4.20;1.20;;;;;;;10.01;56.53;100194.28;4926334;28;119440;-69
2021/05/05 06:37:16;;;;;;;4.55;1.40;;;;;;;10.01;56.16;100194.28;4930652;28;124476;-70
2021/05/05 06:39:44;;;;;;;3.70;1.58;;;;;;;9.99;56.11;100191.72;4930501;28;124250;-70
2021/05/05 06:42:11;;;;;;;5.32;1.55;;;;;;;10.00;56.47;100208.44;4932542;28;119161;-69
2021/05/05 06:44:39;;;;;;;3.33;1.40;;;;;;;10.00;56.62;100204.00;4926086;28;118700;-70
2021/05/05 06:47:06;;;;;;;2.80;1.52;;;;;;;10.03;56.29;100203.00;4929069;28;123573;-69
2021/05/05 06:49:35;;;;;;;3.75;1.55;;;;;;;10.06;56.58;100202.84;4927653;28;123905;-69
2021/05/05 06:52:03;;;;;;;6.07;1.73;;;;;;;10.10;56.30;100214.97;4916207;28;118343;-69
2021/05/05 06:54:30;;;;;;;5.30;1.58;;;;;;;10.13;56.39;100204.19;4932224;28;118944;-69
2021/05/05 06:56:57;;;;;;;5.15;1.80;;;;;;;10.16;56.15;100209.31;4931670;28;124667;-68
2021/05/05 06:59:23;;;;;;;6.32;1.90;;;;;;;10.19;56.59;100219.75;4930347;28;125484;-69
2021/05/05 07:01:50;;;;;;;4.32;1.70;;;;;;;10.23;56.55;100215.16;4911098;28;119827;-69
2021/05/05 07:04:17;;;;;;;7.13;2.05;;;;;;;10.25;56.49;100214.13;4928973;28;119131;-68
2021/05/05 07:06:44;;;;;;;5.10;1.80;;;;;;;10.29;56.15;100218.31;4929520;28;124219;-69
2021/05/05 07:09:30;;;;;;;5.25;2.05;;;;;;;10.35;56.22;100225.09;4899798;28;124284;-68
2021/05/05 07:11:57;;;;;;;6.15;2.30;;;;;;;10.45;56.69;100220.16;4892386;28;119846;-68
2021/05/05 07:14:23;;;;;;;4.80;2.17;;;;;;;10.55;56.82;100213.44;4929976;28;120687;-68
2021/05/05 07:16:50;;;;;;;4.93;2.22;;;;;;;10.67;56.63;100219.84;4915855;28;123502;-68
2021/05/05 07:19:17;;;;;;;6.75;2.30;;;;;;;10.77;56.34;100217.53;4915148;28;123053;-68
2021/05/05 07:21:43;;;;;;;5.82;2.13;;;;;;;10.83;55.94;100209.22;4932527;28;119793;-68
2021/05/05 07:24:10;;;;;;;7.38;2.40;;;;;;;10.89;56.18;100208.91;4916061;28;118134;-67
2021/05/05 07:26:37;;;;;;;5.55;2.17;;;;;;;10.96;55.74;100204.09;4931645;28;124197;-68
2021/05/05 07:29:04;;;;;;;9.48;2.30;;;;;;;11.02;55.81;100209.91;4915750;28;123876;-68
2021/05/05 07:31:31;;;;;;;7.22;2.85;;;;;;;11.09;55.69;100216.56;4899586;28;118260;-68
2021/05/05 07:33:59;;;;;;;8.15;2.40;;;;;;;11.19;55.37;100221.31;4915839;28;117797;-68
2021/05/05 07:36:27;;;;;;;8.52;2.50;;;;;;;11.24;55.45;100224.56;4930275;28;124472;-68
2021/05/05 07:47:01;;;;;;;8.27;2.40;;;;;;;11.62;55.33;100229.41;4905903;28;124143;-69
2021/05/05 07:49:43;;;;;;;5.93;2.28;;;;;;;11.78;55.95;100232.88;4907365;28;124868;-66
2021/05/05 07:52:10;;;;;;;7.17;2.50;;;;;;;11.92;55.79;100247.16;4899970;28;119683;-67
2021/05/05 07:54:36;;;;;;;7.03;2.55;;;;;;;11.99;55.00;100245.84;4893553;28;118270;-66
2021/05/05 07:57:03;;;;;;;8.95;2.80;;;;;;;11.98;54.23;100246.75;4894010;28;124261;-67
2021/05/05 07:59:29;;;;;;;10.85;2.58;;;;;;;11.92;54.07;100247.16;4879199;28;123965;-67
2021/05/05 08:01:56;;;;;;;10.65;3.05;;;;;;;11.86;54.07;100254.50;4885626;28;120869;-66
2021/05/05 08:04:24;;;;;;;7.38;2.78;;;;;;;11.78;54.23;100255.91;4910332;28;120257;-65
2021/05/05 08:06:51;;;;;;;7.47;3.10;;;;;;;11.71;54.44;100260.72;4891843;28;123934;-65
2021/05/05 08:09:18;;;;;;;8.82;3.20;;;;;;;11.61;54.22;100275.47;4906815;28;123870;-64
2021/05/05 08:11:45;;;;;;;9.15;3.00;;;;;;;11.49;54.38;100271.75;4880573;28;119258;-65
2021/05/05 08:14:11;;;;;;;6.20;2.75;;;;;;;11.37;54.58;100277.75;4896964;28;118790;-65
2021/05/05 08:16:38;;;;;;;8.30;3.10;;;;;;;11.26;54.96;100281.00;4893046;28;124336;-64
2021/05/05 08:19:05;;;;;;;11.85;3.30;;;;;;;11.25;55.38;100295.22;4893999;28;125306;-64
2021/05/05 08:21:32;;;;;;;7.65;3.50;;;;;;;11.30;55.85;100293.13;4901188;28;120581;-65
2021/05/05 08:23:59;;;;;;;11.13;4.00;;;;;;;11.41;56.47;100296.03;4908281;28;119107;-66
2021/05/05 08:26:27;;;;;;;10.20;3.65;;;;;;;11.58;56.54;100291.56;4896031;28;123700;-66
2021/05/05 08:28:54;;;;;;;6.25;2.22;;;;;;;11.73;56.35;100285.34;4899091;28;123994;-67
2021/05/05 08:31:20;;;;;;;5.75;2.33;;;;;;;11.84;56.02;100298.84;4889821;28;118717;-67
2021/05/05 08:33:47;;;;;;;2.88;1.60;;;;;;;11.90;55.22;100291.50;4909559;28;118985;-67
2021/05/05 08:36:14;;;;;;;3.80;1.65;;;;;;;11.88;54.75;100303.03;4902853;28;123818;-66
2021/05/05 08:38:41;;;;;;;4.30;1.80;;;;;;;11.87;54.45;100303.97;4899453;28;123939;-66
2021/05/05 08:41:11;;;;;;;6.25;1.67;;;;;;;11.85;54.44;100299.72;4899919;28;120035;-67
2021/05/05 08:43:38;;;;;;;6.10;1.60;;;;;;;11.87;54.39;100298.66;4899052;28;118779;-66
2021/05/05 08:46:08;;;;;;;3.67;1.50;;;;;;;11.90;54.45;100302.13;4879373;28;123666;-68
2021/05/05 08:48:36;;;;;;;5.13;1.50;;;;;;;11.95;54.07;100303.53;4910066;28;124240;-69
2021/05/05 08:51:06;;;;;;;7.38;1.52;;;;;;;12.01;54.22;100304.97;4910303;28;121008;-69
2021/05/05 08:53:33;;;;;;;4.47;1.25;;;;;;;12.10;54.15;100301.78;4902252;28;119941;-68
2021/05/05 08:55:59;;;;;;;4.25;1.42;;;;;;;12.20;54.35;100304.72;4909778;28;124477;-68
2021/05/05 08:58:27;;;;;;;4.63;1.80;;;;;;;12.32;54.27;100313.75;4890869;28;123440;-68
2021/05/05 09:00:55;;;;;;;5.05;1.52;;;;;;;12.43;53.55;100308.63;4921410;28;119314;-68
2021/05/05 09:03:38;;;;;;;4.10;2.10;;;;;;;12.50;53.40;100302.00;4920079;28;118909;-68
2021/05/05 09:06:05;;;;;;;8.38;2.58;;;;;;;12.61;53.28;100315.47;4913066;28;123624;-69
2021/05/05 09:08:34;;;;;;;6.43;2.63;;;;;;;12.74;53.24;100318.22;4920939;28;123173;-69
2021/05/05 09:11:07;;;;;;;4.85;2.97;;;;;;;12.88;53.59;100327.97;4911328;28;119234;-69
2021/05/05 09:13:56;;;;;;;7.25;2.78;;;;;;;13.01;52.94;100317.41;4913604;28;119263;-69
2021/05/05 09:16:29;;;;;;;10.70;2.75;;;;;;;13.11;52.87;100317.69;4903447;28;124791;-68
2021/05/05 09:19:01;;;;;;;10.25;3.00;;;;;;;13.15;52.27;100335.16;4902369;28;124471;-68
2021/05/05 09:21:54;;;;;;;9.02;2.85;;;;;;;13.11;52.43;100334.50;4905182;28;119487;-68
2021/05/05 09:24:31;;;;;;;7.90;2.20;;;;;;;13.06;52.17;100344.56;4910244;28;119529;-68
2021/05/05 09:27:08;;;;;;;8.23;2.25;;;;;;;12.94;51.97;100340.91;4909289;28;124622;-67
2021/05/05 09:29:39;;;;;;;7.65;2.58;;;;;;;12.83;51.87;100346.88;4919819;28;123897;-68
2021/05/05 09:32:07;;;;;;;6.53;2.40;;;;;;;12.75;52.17;100353.59;4909161;28;119730;-68
2021/05/05 09:34:34;;;;;;;6.75;2.30;;;;;;;12.66;52.01;100360.38;4920676;28;118922;-68
2021/05/05 09:37:10;;;;;;;6.72;2.78;;;;;;;12.58;52.34;100368.81;4927511;28;124415;-68
2021/05/05 09:39:40;;;;;;;5.53;2.55;;;;;;;12.57;52.67;100376.88;4920558;28;123906;-68
2021/05/05 09:42:15;;;;;;;7.90;2.75;;;;;;;12.59;53.17;100369.66;4927522;28;121026;-69
2021/05/05 09:44:56;;;;;;;6.90;2.97;;;;;;;12.65;53.51;100370.13;4913728;28;119865;-69
2021/05/05 09:47:24;;;;;;;10.30;3.30;;;;;;;12.78;54.33;100372.03;4919459;28;124804;-69
2021/05/05 09:49:53;;;;;;;8.38;2.95;;;;;;;12.95;54.59;100365.66;4922405;28;124667;-69
2021/05/05 09:52:25;;;;;;;7.80;2.60;;;;;;;13.14;54.27;100360.03;4909014;28;119301;-69
2021/05/05 09:54:59;;;;;;;8.20;2.85;;;;;;;13.33;53.72;100362.41;4909425;28;119672;-69
2021/05/05 09:57:36;;;;;;;7.65;2.70;;;;;;;13.49;52.79;100372.94;4929424;28;123859;-69
2021/05/05 10:00:09;;;;;;;6.78;2.30;;;;;;;13.61;52.29;100374.78;4916042;28;125028;-68
2021/05/05 10:02:44;;;;;;;8.48;2.90;;;;;;;13.67;51.71;100374.38;4909010;28;119332;-69
2021/05/05 10:05:20;;;;;;;7.55;2.22;;;;;;;13.69;51.52;100384.91;4921989;28;119936;-69
2021/05/05 10:07:58;;;;;;;8.93;2.70;;;;;;;13.73;51.77;100400.59;4912438;28;124089;-69
2021/05/05 10:10:31;;;;;;;8.02;2.92;;;;;;;13.80;51.29;100412.53;4913085;28;124476;-68
2021/05/05 10:13:00;;;;;;;2.10;0.80;;;;;;;13.78;49.69;100441.06;4932092;28;120245;-67
2021/05/05 10:15:30;;;;;;;2.17;0.73;;;;;;;13.55;48.94;100444.34;4917669;28;119070;-67
2021/05/05 10:17:59;;;;;;;2.47;1.00;;;;;;;13.25;49.36;100485.19;4894582;28;123308;-67
2021/05/05 10:20:30;;;;;;;4.78;0.98;;;;;;;12.95;49.40;100486.13;4913940;28;124406;-68
2021/05/05 10:23:02;;;;;;;4.75;1.00;;;;;;;12.60;49.40;100505.06;4878116;28;118787;-67
2021/05/05 10:25:31;;;;;;;4.18;1.10;;;;;;;12.24;49.62;100477.03;4896166;28;119143;-68
2021/05/05 10:27:58;;;;;;;3.58;1.05;;;;;;;11.91;50.32;100478.97;4896271;28;124374;-67
2021/05/05 10:30:31;;;;;;;6.05;1.30;;;;;;;11.64;51.17;100476.88;4894795;28;123988;-67
2021/05/05 10:33:25;;;;;;;4.18;1.70;;;;;;;11.48;52.67;100477.72;4912656;28;120277;-67
2021/05/05 10:35:52;;;;;;;10.40;2.08;;;;;;;11.46;53.55;100484.91;4911962;28;119524;-67
2021/05/05 10:38:34;;;;;;;7.43;1.92;;;;;;;11.50;54.48;100490.91;4911517;28;124538;-67
2021/05/05 10:41:11;;;;;;;6.30;2.08;;;;;;;11.62;54.87;100489.34;4888373;28;123850;-68
2021/05/05 10:43:50;;;;;;;9.60;1.95;;;;;;;11.76;55.09;100492.13;4893078;28;118867;-68
2021/05/05 10:46:35;;;;;;;7.18;2.17;;;;;;;11.93;55.31;100493.00;4912128;28;119389;-68
2021/05/05 10:49:05;;;;;;;7.78;2.08;;;;;;;12.11;55.45;100491.09;4908243;28;122913;-67
2021/05/05 10:51:44;;;;;;;8.05;2.28;;;;;;;12.27;55.81;100481.31;4905602;28;124670;-68
2021/05/05 10:54:16;;;;;;;6.63;2.30;;;;;;;12.44;55.61;100473.22;4915977;28;118556;-68
2021/05/05 10:57:03;;;;;;;6.03;2.65;;;;;;;12.60;56.19;100475.84;4915545;28;119222;-68
2021/05/05 10:59:29;;;;;;;5.50;2.33;;;;;;;12.81;55.56;100478.16;4915681;28;124152;-68
2021/05/05 11:01:56;;;;;;;7.55;2.40;;;;;;;12.94;55.12;100471.16;4900449;28;124083;-68
2021/05/05 11:04:23;;;;;;;6.50;2.42;;;;;;;13.07;54.94;100475.69;4901409;28;120351;-68
2021/05/05 11:06:53;;;;;;;6.63;2.08;;;;;;;13.20;54.84;100492.59;4919168;28;119271;-67
2021/05/05 11:09:21;;;;;;;6.47;2.33;;;;;;;13.34;54.85;100483.81;4919542;28;124688;-68
2021/05/05 11:11:52;;;;;;;8.73;2.20;;;;;;;13.49;53.75;100482.84;4894904;28;124012;-68
2021/05/05 11:14:28;;;;;;;7.97;2.20;;;;;;;13.59;53.07;100491.09;4911577;28;120006;-67
2021/05/05 11:17:01;;;;;;;7.05;2.20;;;;;;;13.61;52.78;100498.03;4905530;28;119041;-68
2021/05/05 11:19:43;;;;;;;5.97;2.30;;;;;;;13.62;52.47;100501.56;4902026;28;124567;-68
2021/05/05 11:22:21;;;;;;;8.73;2.38;;;;;;;13.62;51.93;100509.53;4895756;28;123724;-67
2021/05/05 11:24:50;;;;;;;6.18;2.00;;;;;;;13.64;51.45;100502.31;4900322;28;120438;-66
2021/05/05 11:27:18;;;;;;;8.85;2.20;;;;;;;13.66;51.30;100511.06;4900398;28;119957;-67
2021/05/05 11:29:51;;;;;;;5.53;2.17;;;;;;;13.66;50.80;100543.00;4902011;28;123415;-68
2021/05/05 11:32:18;;;;;;;4.00;1.40;;;;;;;13.60;50.22;100584.16;4900512;28;123950;-67
2021/05/05 11:34:46;;;;;;;8.38;1.38;;;;;;;13.32;49.69;100570.84;4897899;28;119691;-67